Thunder radar more information blitzortung!


Radar de pluja more information rain snow radar


Visita la nostra xarxa de llocs de meteo:

Template documentation
and downloads

And another site



Extreme low temperature From: 23-02-2018 09:00 Until: 09:59 warning for: Extreme low temperature Level: Yellow info button

Pagina Historial Weather Underground text

Diari Resum Desembre 13, 2017 Unitats:  Mètric    Imperial   Tant
« Previous Dia
SegĂźent Dia »
Diari Setmana Mensual Anual Personalitzada
  Maxima: Minima: Media:
Temperatura: -17.8 °C -17.5 °C -13.5 °C
Punt de rosada: -17.8 °C -20.3 °C -18.2 °C
Humitat: Humidity % 50 % 55 %
Wind Speed: 0 km/h 0 km/h 8.9 km/h
RĂ fegues de vent: 0 km/h - -
Vent:- - SW
Pression baro: 0 hPa 34361.1 hPa -
Precipitacions: 0 mm    
Historical Graphs
 
 
Dades de taula per Desembre 13, 2017
Temps Temperatura Punt de rosada Pression baro Vent Wind Speed RĂ fegues de vent Humitat Rainfall Rate (Hourly)
-17.8 °C -17.8 °C 0 hPa Calm     Humidity % 0 mm
00:45 -17.3 °C -20.1 °C 34635.4 hPa WNW 2.6 km/h 5.1 km/h 69 % 0 mm
00:55 -17.3 °C -20.1 °C 34635.4 hPa NNW 2.6 km/h 5.1 km/h 69 % 0 mm
01:05 -17.2 °C -20.1 °C 34635.4 hPa North 2.6 km/h 5.1 km/h 69 % 0 mm
01:15 -17.3 °C -20.1 °C 34635.4 hPa North 2.6 km/h 7.7 km/h 69 % 0 mm
01:25 -17.3 °C -20.1 °C 34635.4 hPa NE 2.6 km/h 2.6 km/h 69 % 0 mm
01:45 -17.5 °C -20.3 °C 34635.4 hPa Calm   5.1 km/h 69 % 0 mm
01:55 -17.4 °C -20.2 °C 34635.4 hPa WNW 2.6 km/h 5.1 km/h 69 % 0 mm
02:05 -17.4 °C -20.2 °C 34635.4 hPa Calm   5.1 km/h 69 % 0 mm
02:15 -17.3 °C -20.1 °C 34635.4 hPa North 5.1 km/h 7.7 km/h 69 % 0 mm
02:25 -17.1 °C -19.9 °C 34669.3 hPa Calm   2.6 km/h 69 % 0 mm
02:35 -16.9 °C -19.6 °C 34635.4 hPa Calm   2.6 km/h 70 % 0 mm
02:45 -16.7 °C -19.4 °C 34635.4 hPa West 2.6 km/h 2.6 km/h 70 % 0 mm
02:55 -16.4 °C -19.2 °C 34669.3 hPa WNW 2.6 km/h 2.6 km/h 69 % 0 mm
03:15 -15.8 °C -18.8 °C 34703.1 hPa NW 2.6 km/h 5.1 km/h 68 % 0 mm
03:25 -15.5 °C -18.6 °C 34669.3 hPa NW 2.6 km/h 5.1 km/h 67 % 0 mm
03:45 -15.2 °C -18.6 °C 34669.3 hPa NNE 5.1 km/h 5.1 km/h 65 % 0 mm
03:55 -15.2 °C -18.7 °C 34669.3 hPa North 2.6 km/h 5.1 km/h 64 % 0 mm
04:05 -15.2 °C -18.7 °C 34635.4 hPa Calm   5.1 km/h 64 % 0 mm
04:15 -15.1 °C -18.6 °C 34635.4 hPa NW 2.6 km/h 5.1 km/h 64 % 0 mm
04:45 -13.9 °C -17.6 °C 34669.3 hPa Calm   5.1 km/h 63 % 0 mm
10:53 -14 °C -17.7 °C 34635.4 hPa Calm     63 % 0 mm
10:58 -13.9 °C -17.6 °C 34669.3 hPa ENE 4.2 km/h   63 % 0 mm
10:59 -13.9 °C -17.6 °C 34669.3 hPa ENE 5.1 km/h 5.1 km/h 63 % 0 mm
11:09 -13.8 °C -17.6 °C 34669.3 hPa SW 3.1 km/h 3.1 km/h 62 % 0 mm
11:19 -13.5 °C -17.3 °C 34669.3 hPa West 6 km/h 6 km/h 62 % 0 mm
11:24 -13.4 °C -17.3 °C 34669.3 hPa West 17.9 km/h 17.9 km/h 62 % 0 mm
11:34 -13.4 °C -17.4 °C 34669.3 hPa SW 11.9 km/h 11.9 km/h 61 % 0 mm
11:39 -13.4 °C -17.4 °C 34669.3 hPa WSW 11.9 km/h 11.9 km/h 61 % 0 mm
11:54 -13.3 °C -17.3 °C 34669.3 hPa West 6 km/h 6 km/h 60 % 0 mm
11:59 -13.3 °C -17.3 °C 34635.4 hPa West 6 km/h 6.3 km/h 60 % 0 mm
12:04 -13.1 °C -17.2 °C 34635.4 hPa West 11.9 km/h 11.9 km/h 60 % 0 mm
12:09 -13.1 °C -17.3 °C 34635.4 hPa WSW 9 km/h 9 km/h 59 % 0 mm
12:14 -13 °C -17.2 °C 34635.4 hPa West 6 km/h 6.8 km/h 59 % 0 mm
12:19 -12.9 °C -17.3 °C 34635.4 hPa SW 6.3 km/h 6.3 km/h 58 % 0 mm
12:24 -12.9 °C -17.3 °C 34635.4 hPa North 11.9 km/h 11.9 km/h 58 % 0 mm
12:29 -12.9 °C -17.4 °C 34635.4 hPa WSW 11.9 km/h 11.9 km/h 57 % 0 mm
12:34 -12.8 °C -17.3 °C 34635.4 hPa SW 23.8 km/h 23.8 km/h 57 % 0 mm
12:39 -12.8 °C -17.4 °C 34635.4 hPa NNW 20.9 km/h 20.9 km/h 56 % 0 mm
12:44 -12.7 °C -17.4 °C 34635.4 hPa SW 17.9 km/h 17.9 km/h 55 % 0 mm
12:49 -12.5 °C -17.3 °C 34635.4 hPa WSW 11.9 km/h 11.9 km/h 55 % 0 mm
12:54 -12.2 °C -17 °C 34635.4 hPa WNW 9 km/h 9 km/h 55 % 0 mm
12:59 -12 °C -16.8 °C 34601.5 hPa West 9 km/h 9 km/h 55 % 0 mm
13:19 -11.9 °C -16.8 °C 34601.5 hPa NE 15.6 km/h 15.6 km/h 54 % 0 mm
13:24 -11.7 °C -16.7 °C 34601.5 hPa WNW 17.9 km/h 17.9 km/h 54 % 0 mm
13:34 -11.5 °C -16.6 °C 34601.5 hPa West 9.8 km/h 9.8 km/h 53 % 0 mm
13:39 -11.6 °C -16.7 °C 34601.5 hPa SW 15.6 km/h 15.6 km/h 53 % 0 mm
13:44 -11.6 °C -16.9 °C 34601.5 hPa NNW 11.9 km/h 11.9 km/h 52 % 0 mm
13:49 -11.6 °C -16.8 °C 34601.5 hPa WSW 17.9 km/h 17.9 km/h 52 % 0 mm
13:54 -11.6 °C -16.8 °C 34601.5 hPa SW 20.9 km/h 20.9 km/h 52 % 0 mm
13:59 -11.6 °C -17 °C 34601.5 hPa WNW 15 km/h 15 km/h 51 % 0 mm
14:04 -11.6 °C -17.1 °C 34601.5 hPa WSW 23.8 km/h 23.8 km/h 51 % 0 mm
14:09 -11.7 °C -17.1 °C 34601.5 hPa South 15.3 km/h 15.3 km/h 51 % 0 mm
14:14 -11.7 °C -17.1 °C 34601.5 hPa WNW 15 km/h 15.3 km/h 51 % 0 mm
14:19 -11.8 °C -17.2 °C 34601.5 hPa West 17.9 km/h 17.9 km/h 51 % 0 mm
14:24 -11.9 °C -17.4 °C 34601.5 hPa West 20.9 km/h 20.9 km/h 50 % 0 mm
14:39 -11.9 °C -17.4 °C 34567.7 hPa West 9 km/h 9 km/h 50 % 0 mm
14:44 -11.8 °C -17.2 °C 34567.7 hPa WSW 15.3 km/h 15.3 km/h 51 % 0 mm
14:59 -12.1 °C -17.7 °C 34567.7 hPa WNW 11.9 km/h 11.9 km/h 50 % 0 mm
15:19 -12.4 °C -17.9 °C 34567.7 hPa WNW 9 km/h 9 km/h 50 % 0 mm
15:24 -12.4 °C -17.9 °C 34567.7 hPa SW 9 km/h 9 km/h 50 % 0 mm
15:29 -12.5 °C -18 °C 34567.7 hPa WNW 16.1 km/h 16.1 km/h 50 % 0 mm
15:30 -12.5 °C -18 °C 34567.7 hPa WNW 16.1 km/h 16.1 km/h 50 % 0 mm
15:35 -12.6 °C -18.1 °C 34567.7 hPa West 11.9 km/h 12.7 km/h 50 % 0 mm
15:40 -12.6 °C -18.1 °C 34567.7 hPa West 15 km/h 15 km/h 50 % 0 mm
15:50 -12.6 °C -18.1 °C 34567.7 hPa WSW 3.1 km/h 8 km/h 50 % 0 mm
15:55 -12.5 °C -17.9 °C 34567.7 hPa WSW 9 km/h 9 km/h 51 % 0 mm
16:00 -12.5 °C -18 °C 34533.8 hPa West 8 km/h 8 km/h 50 % 0 mm
16:05 -12.5 °C -18 °C 34533.8 hPa WSW 9.3 km/h 9.3 km/h 50 % 0 mm
16:10 -12.6 °C -18.1 °C 34533.8 hPa West 11.9 km/h 11.9 km/h 50 % 0 mm
16:15 -12.5 °C -18 °C 34533.8 hPa SW 9.3 km/h 9.3 km/h 50 % 0 mm
16:20 -12.5 °C -17.9 °C 34533.8 hPa WSW 6.3 km/h 6.3 km/h 51 % 0 mm
16:25 -12.6 °C -17.9 °C 34533.8 hPa West 6.3 km/h 6.3 km/h 51 % 0 mm
16:30 -12.6 °C -17.9 °C 34533.8 hPa WSW 6 km/h 6 km/h 51 % 0 mm
16:35 -12.6 °C -17.9 °C 34533.8 hPa WSW 9 km/h 9 km/h 51 % 0 mm
16:40 -12.7 °C -18 °C 34533.8 hPa WSW 7.6 km/h 7.6 km/h 51 % 0 mm
16:50 -12.7 °C -18.1 °C 34533.8 hPa WSW 9 km/h 9 km/h 51 % 0 mm
16:55 -12.8 °C -18.1 °C 34533.8 hPa West 5.1 km/h 5.1 km/h 51 % 0 mm
17:00 -12.8 °C -18.1 °C 34533.8 hPa West 6 km/h 6 km/h 51 % 0 mm
17:10 -12.9 °C -18.2 °C 34533.8 hPa West 6 km/h 6.8 km/h 51 % 0 mm
17:15 -12.9 °C -18.3 °C 34533.8 hPa West 6.8 km/h 6.8 km/h 51 % 0 mm
17:20 -12.9 °C -18.3 °C 34533.8 hPa WSW 9.3 km/h 9.3 km/h 51 % 0 mm
17:25 -12.9 °C -18.3 °C 34533.8 hPa West 9 km/h 9 km/h 51 % 0 mm
17:30 -12.9 °C -18.3 °C 34533.8 hPa West 9 km/h 9 km/h 51 % 0 mm
17:35 -12.9 °C -18.3 °C 34533.8 hPa West 9.3 km/h 9.3 km/h 51 % 0 mm
17:40 -13 °C -18.3 °C 34533.8 hPa West 11.9 km/h 11.9 km/h 51 % 0 mm
17:45 -13.1 °C -18.4 °C 34533.8 hPa West 7.6 km/h 7.6 km/h 51 % 0 mm
17:50 -13.1 °C -18.4 °C 34533.8 hPa WSW 11.9 km/h 11.9 km/h 51 % 0 mm
17:55 -13.1 °C -18.4 °C 34533.8 hPa WNW 6 km/h 6 km/h 51 % 0 mm
18:00 -13.2 °C -18.5 °C 34533.8 hPa WNW 5.1 km/h 5.1 km/h 51 % 0 mm
18:10 -13.2 °C -18.5 °C 34533.8 hPa West 9.3 km/h 9.3 km/h 51 % 0 mm
18:15 -13.2 °C -18.5 °C 34533.8 hPa West 9.8 km/h 9.8 km/h 51 % 0 mm
18:20 -13.2 °C -18.5 °C 34533.8 hPa West 11.9 km/h 11.9 km/h 51 % 0 mm
18:25 -13.3 °C -18.6 °C 34533.8 hPa SW 9.8 km/h 9.8 km/h 51 % 0 mm
18:30 -13.3 °C -18.6 °C 34533.8 hPa West 9 km/h 9.8 km/h 51 % 0 mm
18:35 -13.3 °C -18.6 °C 34533.8 hPa WSW 9.8 km/h 10.3 km/h 51 % 0 mm
18:40 -13.3 °C -18.6 °C 34533.8 hPa West 11.9 km/h 11.9 km/h 51 % 0 mm
18:45 -13.3 °C -18.6 °C 34533.8 hPa ENE 11.9 km/h 11.9 km/h 51 % 0 mm
18:50 -13.3 °C -18.6 °C 34533.8 hPa SW 9 km/h 9 km/h 51 % 0 mm
18:55 -13.2 °C -18.5 °C 34533.8 hPa WSW 11.9 km/h 11.9 km/h 51 % 0 mm
19:05 -13.2 °C -17.7 °C 34462.7 hPa West 12.9 km/h 18.2 km/h 57 % 0 mm
19:10 -13.3 °C -18.6 °C 34533.8 hPa West 9 km/h 9 km/h 51 % 0 mm
19:15 -13.3 °C -18.6 °C 34533.8 hPa West 9.8 km/h 9.8 km/h 51 % 0 mm
19:20 -13.3 °C -18.7 °C 34533.8 hPa NW 6.3 km/h 6.3 km/h 51 % 0 mm
19:25 -13.3 °C -18.7 °C 34533.8 hPa West 6 km/h 6.3 km/h 51 % 0 mm
19:35 -12.7 °C -17.3 °C 34428.8 hPa West 15.6 km/h 28.5 km/h 56 % 0 mm
19:45 -13.7 °C -18.9 °C 34496.6 hPa WSW 6.8 km/h 6.8 km/h 51 % 0 mm
19:50 -13.7 °C -18.9 °C 34496.6 hPa West 9.3 km/h 9.3 km/h 51 % 0 mm
19:55 -13.6 °C -18.9 °C 34496.6 hPa WSW 9.3 km/h 9.8 km/h 51 % 0 mm
20:05 -13.6 °C -18.9 °C 34533.8 hPa NNW 9 km/h 9 km/h 51 % 0 mm
20:15 -13.6 °C -18.7 °C 34533.8 hPa WNW 9 km/h 9 km/h 52 % 0 mm
20:20 -13.6 °C -18.7 °C 34533.8 hPa WNW 6 km/h 6 km/h 52 % 0 mm
20:30 -13.6 °C -18.7 °C 34533.8 hPa WNW 9 km/h 9 km/h 52 % 0 mm
20:40 -13.6 °C -18.7 °C 34533.8 hPa NNW 8 km/h 8 km/h 52 % 0 mm
20:45 -13.3 °C -18.1 °C 34395 hPa Calm   7.7 km/h 55 % 0 mm
20:50 -13.7 °C -18.8 °C 34496.6 hPa WSW 3.1 km/h 3.1 km/h 52 % 0 mm
20:55 -13.7 °C -18.8 °C 34496.6 hPa WSW 5.1 km/h 5.1 km/h 52 % 0 mm
21:00 -13.7 °C -18.8 °C 34496.6 hPa West 6 km/h 6 km/h 52 % 0 mm
21:05 -13.8 °C -18.9 °C 34496.6 hPa SW 9 km/h 9 km/h 52 % 0 mm
21:15 -13.8 °C -18.9 °C 34496.6 hPa SSW 6 km/h 6 km/h 52 % 0 mm
21:20 -13.8 °C -18.9 °C 34496.6 hPa WSW 6 km/h 6 km/h 52 % 0 mm
21:25 -13.7 °C -18.8 °C 34496.6 hPa NNW 9.8 km/h 9.8 km/h 52 % 0 mm
21:30 -13.7 °C -18.8 °C 34533.8 hPa WNW 9 km/h 9 km/h 52 % 0 mm
21:35 -13.7 °C -18.8 °C 34533.8 hPa WSW 6 km/h 6 km/h 52 % 0 mm
21:40 -13.7 °C -18.7 °C 34533.8 hPa NNW 6 km/h 6 km/h 53 % 0 mm
21:45 -12.5 °C -17.3 °C 34395 hPa West 15.6 km/h 15.6 km/h 55 % 0 mm
21:50 -13.7 °C -18.7 °C 34496.6 hPa WSW 3.1 km/h 3.7 km/h 53 % 0 mm
21:51 -13.7 °C -18.7 °C 34496.6 hPa SW 6 km/h 6 km/h 53 % 0 mm
21:55 -12.4 °C -17.2 °C 34395 hPa West 20.8 km/h 28.5 km/h 55 % 0 mm
22:05 -12.4 °C -17.2 °C 34395 hPa West 20.8 km/h 20.8 km/h 55 % 0 mm
22:06 -13.7 °C -18.7 °C 34496.6 hPa NW 6 km/h 6 km/h 53 % 0 mm
22:15 -12.3 °C -17.1 °C 34395 hPa West 23.3 km/h 33.6 km/h 55 % 0 mm
22:16 -13.8 °C -18.8 °C 34496.6 hPa North 6 km/h 6 km/h 53 % 0 mm
22:21 -13.8 °C -18.6 °C 34496.6 hPa NW 3.1 km/h   54 % 0 mm
22:25 -12.3 °C -17.1 °C 34361.1 hPa WSW 23.3 km/h 44.1 km/h 55 % 0 mm
22:26 -13.8 °C -18.6 °C 34496.6 hPa WSW 3.1 km/h 3.1 km/h 54 % 0 mm
22:31 -13.8 °C -18.6 °C 34496.6 hPa West 3.1 km/h   54 % 0 mm
22:35 -12.3 °C -17.1 °C 34395 hPa WSW 20.8 km/h 28.5 km/h 55 % 0 mm
22:36 -13.8 °C -18.7 °C 34496.6 hPa WSW 3.1 km/h   54 % 0 mm
22:41 -13.8 °C -18.7 °C 34496.6 hPa WSW 6 km/h 6 km/h 54 % 0 mm
22:45 -12.2 °C -17 °C 34395 hPa West 20.8 km/h 31.1 km/h 55 % 0 mm
22:46 -13.7 °C -18.6 °C 34496.6 hPa SSE 6 km/h 6 km/h 54 % 0 mm
22:55 -12.2 °C -17 °C 34361.1 hPa West 15.6 km/h 23.3 km/h 55 % 0 mm
22:56 -13.7 °C -18.6 °C 34496.6 hPa WSW 4.2 km/h 4.2 km/h 54 % 0 mm
23:06 -13.8 °C -18.5 °C 34462.7 hPa NNW 6 km/h 6 km/h 55 % 0 mm
23:11 -13.9 °C -18.8 °C 34462.7 hPa North 6 km/h 6 km/h 54 % 0 mm
23:15 -12.7 °C -17.5 °C 34395 hPa East 5.1 km/h 15.6 km/h 55 % 0 mm
23:16 -13.9 °C -18.7 °C 34462.7 hPa NNE 15 km/h 15 km/h 55 % 0 mm
23:21 -14.1 °C -18.7 °C 34462.7 hPa ENE 9 km/h 9 km/h 55 % 0 mm
23:25 -12.9 °C -17.7 °C 34395 hPa ENE 2.6 km/h 5.1 km/h 55 % 0 mm
23:26 -14.1 °C -18.8 °C 34462.7 hPa NNE 9 km/h 9 km/h 55 % 0 mm
23:35 -12.9 °C -17.7 °C 34395 hPa NE 5.1 km/h 10.3 km/h 55 % 0 mm
23:36 -14.2 °C -18.8 °C 34462.7 hPa NNE 6 km/h 6 km/h 55 % 0 mm
23:45 -13.1 °C -17.8 °C 34395 hPa NNE 2.6 km/h 7.7 km/h 55 % 0 mm
23:46 -14.2 °C -18.9 °C 34462.7 hPa North 9 km/h 9 km/h 55 % 0 mm
23:51 -14.2 °C -18.9 °C 34462.7 hPa NNE 9.3 km/h 9.3 km/h 55 % 0 mm
23:55 -13.2 °C -17.9 °C 34361.1 hPa NNE 2.6 km/h 7.7 km/h 55 % 0 mm
23:56 -14.2 °C -18.8 °C 34462.7 hPa NW 6.3 km/h 6.3 km/h 55 % 0 mm
Meteo Sesrovires
Elogis d' Weather Underground - 3.25 mb

Guio original per  Jim McMurry - jmcmurry@mwt.net Adaptat per a la plantilla per  Wim van der Kuil - Leuven-Template.eu

Trobareu la nostra informacio del temps tambe a:

Weather Underground

AWEKAS